sensor_id;sensor_type;location;lat;lon;timestamp;pressure;altitude;pressure_sealevel;temperature;humidity
11268;BME280;72685;47.474;9.416;2024-02-26T00:01:27;93516.59;;;9.47;39.24
11268;BME280;72685;47.474;9.416;2024-02-26T00:03:52;93521.72;;;9.55;38.57
11268;BME280;72685;47.474;9.416;2024-02-26T00:06:19;93518.66;;;9.53;39.62
11268;BME280;72685;47.474;9.416;2024-02-26T00:08:45;93524.19;;;9.64;38.70
11268;BME280;72685;47.474;9.416;2024-02-26T00:11:10;93523.16;;;9.69;38.53
11268;BME280;72685;47.474;9.416;2024-02-26T00:13:36;93523.78;;;9.62;38.88
11268;BME280;72685;47.474;9.416;2024-02-26T00:16:02;93522.13;;;9.57;39.54
11268;BME280;72685;47.474;9.416;2024-02-26T00:18:27;93523.16;;;9.69;38.33
11268;BME280;72685;47.474;9.416;2024-02-26T00:20:52;93523.94;;;9.69;38.63
11268;BME280;72685;47.474;9.416;2024-02-26T00:23:18;93527.66;;;9.65;39.31
11268;BME280;72685;47.474;9.416;2024-02-26T00:25:43;93524.13;;;9.61;39.13
11268;BME280;72685;47.474;9.416;2024-02-26T00:28:10;93529.97;;;9.66;39.12
11268;BME280;72685;47.474;9.416;2024-02-26T00:30:35;93529.19;;;9.66;39.65
11268;BME280;72685;47.474;9.416;2024-02-26T00:33:01;93526.78;;;9.61;39.55
11268;BME280;72685;47.474;9.416;2024-02-26T00:35:26;93531.09;;;9.65;39.11
11268;BME280;72685;47.474;9.416;2024-02-26T00:37:52;93517.13;;;9.72;38.67
11268;BME280;72685;47.474;9.416;2024-02-26T00:40:18;93523.66;;;9.74;38.44
11268;BME280;72685;47.474;9.416;2024-02-26T00:42:43;93525.41;;;9.67;38.90
11268;BME280;72685;47.474;9.416;2024-02-26T00:45:11;93521.69;;;9.71;39.46
11268;BME280;72685;47.474;9.416;2024-02-26T00:47:37;93525.63;;;9.77;38.46
11268;BME280;72685;47.474;9.416;2024-02-26T00:50:03;93518.78;;;9.76;38.76
11268;BME280;72685;47.474;9.416;2024-02-26T00:52:28;93522.47;;;9.72;39.97
11268;BME280;72685;47.474;9.416;2024-02-26T00:54:53;93519.81;;;9.72;39.13
11268;BME280;72685;47.474;9.416;2024-02-26T00:57:19;93512.59;;;9.72;39.12
11268;BME280;72685;47.474;9.416;2024-02-26T00:59:44;93503.31;;;9.66;39.75
11268;BME280;72685;47.474;9.416;2024-02-26T01:02:09;93516.19;;;9.64;39.81
11268;BME280;72685;47.474;9.416;2024-02-26T01:04:35;93519.53;;;9.77;39.52
11268;BME280;72685;47.474;9.416;2024-02-26T01:07:00;93515.66;;;9.74;39.76
11268;BME280;72685;47.474;9.416;2024-02-26T01:09:25;93514.56;;;9.75;39.65
11268;BME280;72685;47.474;9.416;2024-02-26T01:11:51;93514.56;;;9.75;39.46
11268;BME280;72685;47.474;9.416;2024-02-26T01:14:16;93518.41;;;9.78;39.54
11268;BME280;72685;47.474;9.416;2024-02-26T01:16:42;93518.34;;;9.74;39.79
11268;BME280;72685;47.474;9.416;2024-02-26T01:19:07;93511.88;;;9.75;40.04
11268;BME280;72685;47.474;9.416;2024-02-26T01:21:32;93507.66;;;9.74;40.19
11268;BME280;72685;47.474;9.416;2024-02-26T01:23:58;93497.78;;;9.75;40.37
11268;BME280;72685;47.474;9.416;2024-02-26T01:26:23;93495.09;;;9.75;40.40
11268;BME280;72685;47.474;9.416;2024-02-26T01:28:48;93506.09;;;9.73;39.74
11268;BME280;72685;47.474;9.416;2024-02-26T01:31:14;93498.06;;;9.70;39.82
11268;BME280;72685;47.474;9.416;2024-02-26T01:33:39;93499.59;;;9.71;40.10
11268;BME280;72685;47.474;9.416;2024-02-26T01:36:05;93499.50;;;9.67;40.68
11268;BME280;72685;47.474;9.416;2024-02-26T01:38:31;93502.16;;;9.67;40.48
11268;BME280;72685;47.474;9.416;2024-02-26T01:40:56;93499.59;;;9.71;40.15
11268;BME280;72685;47.474;9.416;2024-02-26T01:43:22;93510.78;;;9.61;40.33
11268;BME280;72685;47.474;9.416;2024-02-26T01:45:47;93515.41;;;9.64;40.76
11268;BME280;72685;47.474;9.416;2024-02-26T01:48:13;93513.00;;;9.74;38.84
11268;BME280;72685;47.474;9.416;2024-02-26T01:50:39;93506.66;;;9.63;41.33
11268;BME280;72685;47.474;9.416;2024-02-26T01:53:06;93502.38;;;9.58;41.09
11268;BME280;72685;47.474;9.416;2024-02-26T01:55:31;93506.00;;;9.50;42.11
11268;BME280;72685;47.474;9.416;2024-02-26T01:57:57;93516.00;;;9.38;41.90
11268;BME280;72685;47.474;9.416;2024-02-26T02:00:24;93512.91;;;9.20;43.85
11268;BME280;72685;47.474;9.416;2024-02-26T02:02:50;93512.63;;;9.10;46.62
11268;BME280;72685;47.474;9.416;2024-02-26T02:05:16;93505.78;;;9.09;45.24
11268;BME280;72685;47.474;9.416;2024-02-26T02:07:44;93510.75;;;9.10;44.08
11268;BME280;72685;47.474;9.416;2024-02-26T02:10:10;93509.97;;;8.94;48.35
11268;BME280;72685;47.474;9.416;2024-02-26T02:12:35;93517.34;;;9.00;45.01
11268;BME280;72685;47.474;9.416;2024-02-26T02:15:04;93519.69;;;9.02;46.42
11268;BME280;72685;47.474;9.416;2024-02-26T02:17:30;93516.44;;;8.93;46.10
11268;BME280;72685;47.474;9.416;2024-02-26T02:19:56;93524.66;;;8.88;46.60
11268;BME280;72685;47.474;9.416;2024-02-26T02:22:21;93528.28;;;8.95;46.39
11268;BME280;72685;47.474;9.416;2024-02-26T02:24:48;93520.38;;;8.99;43.78
11268;BME280;72685;47.474;9.416;2024-02-26T02:27:14;93524.56;;;9.00;45.64
11268;BME280;72685;47.474;9.416;2024-02-26T02:29:39;93523.03;;;8.99;46.11
11268;BME280;72685;47.474;9.416;2024-02-26T02:32:05;93523.16;;;8.75;46.85
11268;BME280;72685;47.474;9.416;2024-02-26T02:34:31;93526.16;;;8.58;48.38
11268;BME280;72685;47.474;9.416;2024-02-26T02:36:57;93532.38;;;8.49;49.65
11268;BME280;72685;47.474;9.416;2024-02-26T02:39:23;93533.31;;;8.41;49.54
11268;BME280;72685;47.474;9.416;2024-02-26T02:41:48;93534.34;;;8.37;49.56
11268;BME280;72685;47.474;9.416;2024-02-26T02:44:14;93538.06;;;8.08;52.50
11268;BME280;72685;47.474;9.416;2024-02-26T02:46:39;93544.66;;;7.74;53.57
11268;BME280;72685;47.474;9.416;2024-02-26T02:49:11;93553.31;;;7.71;53.49
11268;BME280;72685;47.474;9.416;2024-02-26T02:51:37;93545.44;;;7.63;54.00
11268;BME280;72685;47.474;9.416;2024-02-26T02:54:02;93560.06;;;7.44;51.78
11268;BME280;72685;47.474;9.416;2024-02-26T02:56:28;93563.75;;;7.40;51.76
11268;BME280;72685;47.474;9.416;2024-02-26T02:58:53;93567.03;;;7.25;53.10
11268;BME280;72685;47.474;9.416;2024-02-26T03:01:18;93566.78;;;7.06;53.15
11268;BME280;72685;47.474;9.416;2024-02-26T03:03:44;93564.72;;;7.11;52.70
11268;BME280;72685;47.474;9.416;2024-02-26T03:06:09;93565.03;;;6.98;53.36
11268;BME280;72685;47.474;9.416;2024-02-26T03:08:34;93573.09;;;6.89;52.60
11268;BME280;72685;47.474;9.416;2024-02-26T03:11:03;93573.09;;;6.89;53.27
11268;BME280;72685;47.474;9.416;2024-02-26T03:13:29;93566.00;;;6.93;52.98
11268;BME280;72685;47.474;9.416;2024-02-26T03:15:54;93577.81;;;6.83;53.14
11268;BME280;72685;47.474;9.416;2024-02-26T03:18:20;93577.69;;;6.80;53.67
11268;BME280;72685;47.474;9.416;2024-02-26T03:20:45;93570.19;;;6.82;53.35
11268;BME280;72685;47.474;9.416;2024-02-26T03:23:11;93565.31;;;6.84;52.71
11268;BME280;72685;47.474;9.416;2024-02-26T03:25:41;93562.25;;;6.94;52.27
11268;BME280;72685;47.474;9.416;2024-02-26T03:28:06;93559.72;;;6.98;51.69
11268;BME280;72685;47.474;9.416;2024-02-26T03:30:31;93546.75;;;6.96;52.03
11268;BME280;72685;47.474;9.416;2024-02-26T03:32:57;93546.75;;;6.96;51.49
11268;BME280;72685;47.474;9.416;2024-02-26T03:35:22;93551.75;;;6.98;51.35
11268;BME280;72685;47.474;9.416;2024-02-26T03:37:47;93548.63;;;6.96;51.74
11268;BME280;72685;47.474;9.416;2024-02-26T03:40:13;93555.97;;;6.99;51.30
11268;BME280;72685;47.474;9.416;2024-02-26T03:42:39;93560.06;;;7.08;51.14
11268;BME280;72685;47.474;9.416;2024-02-26T03:45:06;93553.19;;;7.07;53.63
11268;BME280;72685;47.474;9.416;2024-02-26T03:47:31;93549.53;;;7.12;54.10
11268;BME280;72685;47.474;9.416;2024-02-26T03:49:57;93544.56;;;7.10;55.33
11268;BME280;72685;47.474;9.416;2024-02-26T03:52:24;93528.63;;;7.10;55.25
11268;BME280;72685;47.474;9.416;2024-02-26T03:54:49;93516.69;;;7.04;54.65
11268;BME280;72685;47.474;9.416;2024-02-26T03:57:15;93504.50;;;6.91;54.77
11268;BME280;72685;47.474;9.416;2024-02-26T03:59:40;93499.50;;;6.89;57.46
11268;BME280;72685;47.474;9.416;2024-02-26T04:02:05;93503.50;;;6.96;57.64
11268;BME280;72685;47.474;9.416;2024-02-26T04:04:34;93483.38;;;6.95;56.30
11268;BME280;72685;47.474;9.416;2024-02-26T04:06:59;93494.91;;;6.99;56.29
11268;BME280;72685;47.474;9.416;2024-02-26T04:09:24;93498.66;;;6.98;56.33
11268;BME280;72685;47.474;9.416;2024-02-26T04:11:50;93496.84;;;6.89;56.94
11268;BME280;72685;47.474;9.416;2024-02-26T04:14:15;93493.66;;;6.84;58.05
11268;BME280;72685;47.474;9.416;2024-02-26T04:16:41;93487.56;;;6.96;56.69
11268;BME280;72685;47.474;9.416;2024-02-26T04:19:06;93480.94;;;7.02;59.22
11268;BME280;72685;47.474;9.416;2024-02-26T04:21:32;93485.91;;;7.03;58.03
11268;BME280;72685;47.474;9.416;2024-02-26T04:23:57;93506.06;;;6.92;54.86
11268;BME280;72685;47.474;9.416;2024-02-26T04:26:26;93503.59;;;6.87;55.85
11268;BME280;72685;47.474;9.416;2024-02-26T04:28:51;93509.50;;;6.48;58.98
11268;BME280;72685;47.474;9.416;2024-02-26T04:31:18;93507.91;;;6.34;61.36
11268;BME280;72685;47.474;9.416;2024-02-26T04:33:44;93503.84;;;6.37;61.72
11268;BME280;72685;47.474;9.416;2024-02-26T04:36:13;93507.13;;;6.34;62.40
11268;BME280;72685;47.474;9.416;2024-02-26T04:38:40;93507.00;;;6.30;63.24
11268;BME280;72685;47.474;9.416;2024-02-26T04:41:06;93510.75;;;6.29;64.29
11268;BME280;72685;47.474;9.416;2024-02-26T04:43:31;93518.41;;;6.31;63.84
11268;BME280;72685;47.474;9.416;2024-02-26T04:45:56;93520.28;;;6.30;60.77
11268;BME280;72685;47.474;9.416;2024-02-26T04:48:22;93511.44;;;6.38;58.96
11268;BME280;72685;47.474;9.416;2024-02-26T04:50:48;93514.81;;;6.48;59.90
11268;BME280;72685;47.474;9.416;2024-02-26T04:53:13;93521.00;;;6.52;58.99
11268;BME280;72685;47.474;9.416;2024-02-26T04:55:39;93542.97;;;6.40;61.48
11268;BME280;72685;47.474;9.416;2024-02-26T04:58:04;93545.38;;;6.33;62.14
11268;BME280;72685;47.474;9.416;2024-02-26T05:00:29;93551.97;;;6.27;62.09
11268;BME280;72685;47.474;9.416;2024-02-26T05:02:55;93551.75;;;6.32;61.98
11268;BME280;72685;47.474;9.416;2024-02-26T05:05:20;93552.41;;;6.29;64.64
11268;BME280;72685;47.474;9.416;2024-02-26T05:07:45;93562.66;;;6.18;65.45
11268;BME280;72685;47.474;9.416;2024-02-26T05:10:11;93570.75;;;6.22;59.43
11268;BME280;72685;47.474;9.416;2024-02-26T05:12:36;93565.38;;;6.10;63.31
11268;BME280;72685;47.474;9.416;2024-02-26T05:15:02;93573.59;;;5.96;64.20
11268;BME280;72685;47.474;9.416;2024-02-26T05:17:28;93582.13;;;5.72;64.05
11268;BME280;72685;47.474;9.416;2024-02-26T05:19:53;93582.97;;;5.85;61.89
11268;BME280;72685;47.474;9.416;2024-02-26T05:22:19;93575.97;;;5.89;60.85
11268;BME280;72685;47.474;9.416;2024-02-26T05:24:44;93578.75;;;5.93;60.61
11268;BME280;72685;47.474;9.416;2024-02-26T05:27:10;93585.16;;;5.92;61.25
11268;BME280;72685;47.474;9.416;2024-02-26T05:29:35;93593.09;;;5.92;61.06
11268;BME280;72685;47.474;9.416;2024-02-26T05:32:01;93607.78;;;5.89;61.62
11268;BME280;72685;47.474;9.416;2024-02-26T05:34:26;93602.91;;;5.91;61.37
11268;BME280;72685;47.474;9.416;2024-02-26T05:36:52;93614.44;;;5.95;60.27
11268;BME280;72685;47.474;9.416;2024-02-26T05:39:17;93618.19;;;5.94;61.96
11268;BME280;72685;47.474;9.416;2024-02-26T05:41:43;93625.03;;;5.95;61.16
11268;BME280;72685;47.474;9.416;2024-02-26T05:44:09;93612.84;;;5.73;63.50
11268;BME280;72685;47.474;9.416;2024-02-26T05:46:35;93619.88;;;5.69;64.76
11268;BME280;72685;47.474;9.416;2024-02-26T05:49:01;93614.91;;;5.68;63.93
11268;BME280;72685;47.474;9.416;2024-02-26T05:51:26;93621.09;;;5.72;63.97
11268;BME280;72685;47.474;9.416;2024-02-26T05:53:51;93622.50;;;5.69;63.12
11268;BME280;72685;47.474;9.416;2024-02-26T05:56:20;93630.16;;;5.71;65.89
11268;BME280;72685;47.474;9.416;2024-02-26T05:58:45;93634.81;;;5.74;63.67
11268;BME280;72685;47.474;9.416;2024-02-26T06:01:11;93637.84;;;5.93;60.88
11268;BME280;72685;47.474;9.416;2024-02-26T06:03:36;93641.94;;;6.11;59.60
11268;BME280;72685;47.474;9.416;2024-02-26T06:06:02;93634.50;;;6.05;60.76
11268;BME280;72685;47.474;9.416;2024-02-26T06:08:27;93632.28;;;6.07;61.16
11268;BME280;72685;47.474;9.416;2024-02-26T06:10:52;93628.69;;;6.11;60.38
11268;BME280;72685;47.474;9.416;2024-02-26T06:13:18;93632.69;;;6.17;60.52
11268;BME280;72685;47.474;9.416;2024-02-26T06:15:43;93638.44;;;6.19;60.27
11268;BME280;72685;47.474;9.416;2024-02-26T06:18:08;93643.44;;;6.21;60.52
11268;BME280;72685;47.474;9.416;2024-02-26T06:20:34;93649.97;;;6.23;60.23
11268;BME280;72685;47.474;9.416;2024-02-26T06:22:59;93648.41;;;6.22;60.55
11268;BME280;72685;47.474;9.416;2024-02-26T06:25:24;93653.31;;;7.76;82.92
11268;BME280;72685;47.474;9.416;2024-02-26T06:27:51;93664.66;;;6.62;62.98
11268;BME280;72685;47.474;9.416;2024-02-26T06:30:16;93672.09;;;6.27;63.51
11268;BME280;72685;47.474;9.416;2024-02-26T06:32:41;93678.69;;;6.21;62.71
11268;BME280;72685;47.474;9.416;2024-02-26T06:35:07;93677.00;;;6.17;63.17
11268;BME280;72685;47.474;9.416;2024-02-26T06:37:34;93670.03;;;6.12;63.68
11268;BME280;72685;47.474;9.416;2024-02-26T06:40:00;93667.09;;;6.05;63.14
11268;BME280;72685;47.474;9.416;2024-02-26T06:42:25;93675.34;;;6.04;62.89
11268;BME280;72685;47.474;9.416;2024-02-26T06:44:51;93678.97;;;5.99;64.24
11268;BME280;72685;47.474;9.416;2024-02-26T06:47:16;93681.16;;;5.97;64.24
11268;BME280;72685;47.474;9.416;2024-02-26T06:49:42;93690.06;;;5.84;64.34
11268;BME280;72685;47.474;9.416;2024-02-26T06:52:07;93688.06;;;5.81;65.42
11268;BME280;72685;47.474;9.416;2024-02-26T06:54:32;93689.34;;;5.75;66.33
11268;BME280;72685;47.474;9.416;2024-02-26T06:56:58;93690.75;;;5.72;65.77
11268;BME280;72685;47.474;9.416;2024-02-26T06:59:24;93691.69;;;5.76;65.52
11268;BME280;72685;47.474;9.416;2024-02-26T07:01:49;93695.47;;;5.67;65.40
11268;BME280;72685;47.474;9.416;2024-02-26T07:04:14;93687.81;;;5.74;65.79
11268;BME280;72685;47.474;9.416;2024-02-26T07:06:40;93693.56;;;5.76;66.56
11268;BME280;72685;47.474;9.416;2024-02-26T07:09:06;93693.75;;;5.71;67.71
11268;BME280;72685;47.474;9.416;2024-02-26T07:11:32;93689.97;;;5.72;68.00
11268;BME280;72685;47.474;9.416;2024-02-26T07:13:57;93687.28;;;5.89;65.21
11268;BME280;72685;47.474;9.416;2024-02-26T07:16:22;93681.94;;;5.98;64.83
11268;BME280;72685;47.474;9.416;2024-02-26T07:18:48;93682.22;;;6.05;65.00
11268;BME280;72685;47.474;9.416;2024-02-26T07:21:13;93676.41;;;6.11;66.21
11268;BME280;72685;47.474;9.416;2024-02-26T07:23:38;93673.13;;;6.14;65.68
11268;BME280;72685;47.474;9.416;2024-02-26T07:26:04;93677.72;;;6.26;66.02
11268;BME280;72685;47.474;9.416;2024-02-26T07:28:29;93675.78;;;6.35;65.04
11268;BME280;72685;47.474;9.416;2024-02-26T07:30:55;93678.25;;;6.40;63.61
11268;BME280;72685;47.474;9.416;2024-02-26T07:33:20;93686.53;;;6.38;65.07
11268;BME280;72685;47.474;9.416;2024-02-26T07:35:46;93676.09;;;6.54;65.37
11268;BME280;72685;47.474;9.416;2024-02-26T07:38:11;93673.97;;;6.68;62.64
11268;BME280;72685;47.474;9.416;2024-02-26T07:40:38;93681.84;;;6.77;62.37
11268;BME280;72685;47.474;9.416;2024-02-26T07:43:04;93680.44;;;6.79;64.76
11268;BME280;72685;47.474;9.416;2024-02-26T07:45:29;93677.31;;;6.77;65.46
11268;BME280;72685;47.474;9.416;2024-02-26T07:47:54;93677.91;;;7.16;63.73
11268;BME280;72685;47.474;9.416;2024-02-26T07:50:20;93669.91;;;7.49;62.26
11268;BME280;72685;47.474;9.416;2024-02-26T07:52:45;93670.50;;;7.78;60.22
11268;BME280;72685;47.474;9.416;2024-02-26T07:55:10;93678.16;;;7.80;59.68
11268;BME280;72685;47.474;9.416;2024-02-26T07:57:36;93671.59;;;8.02;58.96
11268;BME280;72685;47.474;9.416;2024-02-26T08:00:03;93671.94;;;7.64;60.62
11268;BME280;72685;47.474;9.416;2024-02-26T08:02:28;93671.06;;;7.72;60.52
11268;BME280;72685;47.474;9.416;2024-02-26T08:04:53;93668.69;;;7.46;64.23
11268;BME280;72685;47.474;9.416;2024-02-26T08:07:19;93670.88;;;6.99;70.89
11268;BME280;72685;47.474;9.416;2024-02-26T08:09:46;93672.94;;;6.61;75.54
11268;BME280;72685;47.474;9.416;2024-02-26T08:12:12;93682.19;;;6.55;76.84
11268;BME280;72685;47.474;9.416;2024-02-26T08:14:37;93684.91;;;6.46;79.01
11268;BME280;72685;47.474;9.416;2024-02-26T08:17:03;93691.44;;;6.49;78.73
11268;BME280;72685;47.474;9.416;2024-02-26T08:19:28;93683.34;;;6.24;79.50
11268;BME280;72685;47.474;9.416;2024-02-26T08:21:53;93688.19;;;6.22;80.49
11268;BME280;72685;47.474;9.416;2024-02-26T08:24:19;93676.94;;;6.25;80.79
11268;BME280;72685;47.474;9.416;2024-02-26T08:26:45;93669.63;;;6.22;81.04
11268;BME280;72685;47.474;9.416;2024-02-26T08:29:10;93664.84;;;6.36;80.00
11268;BME280;72685;47.474;9.416;2024-02-26T08:31:35;93659.09;;;6.34;81.60
11268;BME280;72685;47.474;9.416;2024-02-26T08:34:03;93667.00;;;6.43;81.97
11268;BME280;72685;47.474;9.416;2024-02-26T08:36:33;93658.66;;;6.53;79.59
11268;BME280;72685;47.474;9.416;2024-02-26T08:38:59;93658.63;;;6.74;77.05
11268;BME280;72685;47.474;9.416;2024-02-26T08:41:24;93653.25;;;6.82;76.24
11268;BME280;72685;47.474;9.416;2024-02-26T08:43:50;93658.75;;;7.10;75.02
11268;BME280;72685;47.474;9.416;2024-02-26T08:46:15;93653.31;;;7.07;74.15
11268;BME280;72685;47.474;9.416;2024-02-26T08:48:40;93655.84;;;7.36;72.66
11268;BME280;72685;47.474;9.416;2024-02-26T08:51:06;93660.91;;;7.29;72.09
11268;BME280;72685;47.474;9.416;2024-02-26T08:53:32;93661.41;;;7.55;70.87
11268;BME280;72685;47.474;9.416;2024-02-26T08:55:58;93666.72;;;7.79;71.85
11268;BME280;72685;47.474;9.416;2024-02-26T08:58:23;93668.31;;;8.29;70.20
11268;BME280;72685;47.474;9.416;2024-02-26T09:00:48;93666.75;;;8.28;68.36
11268;BME280;72685;47.474;9.416;2024-02-26T09:03:14;93675.16;;;7.93;68.41
11268;BME280;72685;47.474;9.416;2024-02-26T09:05:39;93677.28;;;7.88;68.61
11268;BME280;72685;47.474;9.416;2024-02-26T09:08:05;93682.47;;;8.09;68.31
11268;BME280;72685;47.474;9.416;2024-02-26T09:10:30;93676.81;;;8.10;68.30
11268;BME280;72685;47.474;9.416;2024-02-26T09:12:57;93683.25;;;8.09;68.39
11268;BME280;72685;47.474;9.416;2024-02-26T09:15:22;93674.03;;;7.94;69.35
11268;BME280;72685;47.474;9.416;2024-02-26T09:17:47;93687.31;;;7.70;69.26
11268;BME280;72685;47.474;9.416;2024-02-26T09:20:15;93688.47;;;7.81;70.47
11268;BME280;72685;47.474;9.416;2024-02-26T09:22:45;93683.69;;;7.75;67.63
11268;BME280;72685;47.474;9.416;2024-02-26T09:25:10;93692.09;;;7.89;68.75
11268;BME280;72685;47.474;9.416;2024-02-26T09:27:36;93693.13;;;7.84;66.26
11268;BME280;72685;47.474;9.416;2024-02-26T09:30:01;93693.09;;;7.72;67.04
11268;BME280;72685;47.474;9.416;2024-02-26T09:32:27;93687.22;;;7.79;65.99
11268;BME280;72685;47.474;9.416;2024-02-26T09:34:52;93689.44;;;7.77;65.32
11268;BME280;72685;47.474;9.416;2024-02-26T09:37:17;93688.47;;;7.93;64.99
11268;BME280;72685;47.474;9.416;2024-02-26T09:39:43;93685.56;;;7.86;64.60
11268;BME280;72685;47.474;9.416;2024-02-26T09:42:09;93686.34;;;7.87;64.73
11268;BME280;72685;47.474;9.416;2024-02-26T09:44:36;93700.44;;;7.99;63.64
11268;BME280;72685;47.474;9.416;2024-02-26T09:47:05;93704.63;;;8.13;64.59
11268;BME280;72685;47.474;9.416;2024-02-26T09:49:34;93705.63;;;7.84;65.65
11268;BME280;72685;47.474;9.416;2024-02-26T09:52:01;93706.75;;;8.07;64.11
11268;BME280;72685;47.474;9.416;2024-02-26T09:54:28;93705.50;;;8.05;64.25
11268;BME280;72685;47.474;9.416;2024-02-26T09:56:59;93705.41;;;8.01;62.96
11268;BME280;72685;47.474;9.416;2024-02-26T09:59:26;93707.50;;;7.83;66.28
11268;BME280;72685;47.474;9.416;2024-02-26T10:01:53;93713.25;;;7.85;67.72
11268;BME280;72685;47.474;9.416;2024-02-26T10:04:20;93712.16;;;7.86;68.98
11268;BME280;72685;47.474;9.416;2024-02-26T10:06:46;93725.69;;;7.81;68.40
11268;BME280;72685;47.474;9.416;2024-02-26T10:09:12;93713.38;;;7.89;66.29
11268;BME280;72685;47.474;9.416;2024-02-26T10:11:38;93718.59;;;7.97;64.36
11268;BME280;72685;47.474;9.416;2024-02-26T10:14:05;93724.00;;;8.01;64.41
11268;BME280;72685;47.474;9.416;2024-02-26T10:16:30;93729.13;;;8.06;63.66
11268;BME280;72685;47.474;9.416;2024-02-26T10:18:57;93722.38;;;8.21;64.34
11268;BME280;72685;47.474;9.416;2024-02-26T10:21:22;93728.22;;;8.14;64.95
11268;BME280;72685;47.474;9.416;2024-02-26T10:23:48;93720.72;;;8.40;64.77
11268;BME280;72685;47.474;9.416;2024-02-26T10:26:14;93715.75;;;8.39;64.58
11268;BME280;72685;47.474;9.416;2024-02-26T10:28:44;93724.69;;;8.22;63.09
11268;BME280;72685;47.474;9.416;2024-02-26T10:31:10;93728.16;;;8.35;62.14
11268;BME280;72685;47.474;9.416;2024-02-26T10:33:37;93732.69;;;8.22;63.23
11268;BME280;72685;47.474;9.416;2024-02-26T10:36:06;93728.47;;;8.33;62.70
11268;BME280;72685;47.474;9.416;2024-02-26T10:38:36;93723.19;;;8.45;62.34
11268;BME280;72685;47.474;9.416;2024-02-26T10:41:03;93718.59;;;8.58;62.12
11268;BME280;72685;47.474;9.416;2024-02-26T10:43:28;93715.34;;;8.65;60.35
11268;BME280;72685;47.474;9.416;2024-02-26T10:45:55;93715.84;;;8.55;58.56
11268;BME280;72685;47.474;9.416;2024-02-26T10:48:21;93726.81;;;8.53;59.90
11268;BME280;72685;47.474;9.416;2024-02-26T10:50:47;93731.03;;;8.54;59.26
11268;BME280;72685;47.474;9.416;2024-02-26T10:53:16;93738.00;;;8.59;57.08
11268;BME280;72685;47.474;9.416;2024-02-26T10:55:53;93736.81;;;8.32;57.33
11268;BME280;72685;47.474;9.416;2024-02-26T10:58:20;93739.78;;;8.18;60.16
11268;BME280;72685;47.474;9.416;2024-02-26T11:00:47;93742.91;;;8.32;59.74
11268;BME280;72685;47.474;9.416;2024-02-26T11:03:15;93739.13;;;8.33;60.32
11268;BME280;72685;47.474;9.416;2024-02-26T11:05:43;93748.41;;;8.15;60.55
11268;BME280;72685;47.474;9.416;2024-02-26T11:08:10;93753.31;;;8.13;61.77
11268;BME280;72685;47.474;9.416;2024-02-26T11:10:36;93748.66;;;8.10;62.81
11268;BME280;72685;47.474;9.416;2024-02-26T11:13:05;93752.41;;;8.09;64.47
11268;BME280;72685;47.474;9.416;2024-02-26T11:15:32;93746.44;;;8.12;65.05
11268;BME280;72685;47.474;9.416;2024-02-26T11:17:59;93751.75;;;8.12;63.74
11268;BME280;72685;47.474;9.416;2024-02-26T11:20:28;93750.66;;;8.13;64.13
11268;BME280;72685;47.474;9.416;2024-02-26T11:22:53;93761.72;;;8.03;63.56
11268;BME280;72685;47.474;9.416;2024-02-26T11:25:19;93754.94;;;8.06;63.64
11268;BME280;72685;47.474;9.416;2024-02-26T11:27:49;93736.44;;;8.21;64.13
11268;BME280;72685;47.474;9.416;2024-02-26T11:30:17;93736.13;;;8.23;65.61
11268;BME280;72685;47.474;9.416;2024-02-26T11:32:46;93744.09;;;8.23;64.29
11268;BME280;72685;47.474;9.416;2024-02-26T11:35:12;93741.88;;;8.25;64.66
11268;BME280;72685;47.474;9.416;2024-02-26T11:37:41;93744.44;;;8.33;63.96
11268;BME280;72685;47.474;9.416;2024-02-26T11:40:11;93732.03;;;8.37;63.22
11268;BME280;72685;47.474;9.416;2024-02-26T11:42:45;93736.59;;;8.37;64.84
11268;BME280;72685;47.474;9.416;2024-02-26T11:48:03;93731.47;;;8.20;66.41
11268;BME280;72685;47.474;9.416;2024-02-26T11:50:42;93728.16;;;8.23;67.31
11268;BME280;72685;47.474;9.416;2024-02-26T11:53:25;93730.47;;;8.24;70.86
11268;BME280;72685;47.474;9.416;2024-02-26T11:58:45;93719.16;;;8.15;69.38
11268;BME280;72685;47.474;9.416;2024-02-26T12:01:36;93711.34;;;8.83;72.83
11268;BME280;72685;47.474;9.416;2024-02-26T12:04:04;93712.78;;;8.80;69.70
11268;BME280;72685;47.474;9.416;2024-02-26T12:06:30;93710.50;;;8.94;69.40
11268;BME280;72685;47.474;9.416;2024-02-26T12:08:56;93718.97;;;9.24;69.16
11268;BME280;72685;47.474;9.416;2024-02-26T12:11:22;93712.50;;;9.53;67.98
11268;BME280;72685;47.474;9.416;2024-02-26T12:13:47;93714.31;;;9.96;67.42
11268;BME280;72685;47.474;9.416;2024-02-26T12:16:35;93698.59;;;9.91;64.58
11268;BME280;72685;47.474;9.416;2024-02-26T12:19:04;93703.53;;;10.20;63.36
11268;BME280;72685;47.474;9.416;2024-02-26T12:21:30;93721.78;;;10.34;64.02
11268;BME280;72685;47.474;9.416;2024-02-26T12:23:55;93716.25;;;10.42;62.72
11268;BME280;72685;47.474;9.416;2024-02-26T12:26:21;93723.16;;;10.62;63.35
11268;BME280;72685;47.474;9.416;2024-02-26T12:28:47;93720.41;;;10.75;63.16
11268;BME280;72685;47.474;9.416;2024-02-26T12:31:12;93728.22;;;10.33;62.30
11268;BME280;72685;47.474;9.416;2024-02-26T12:33:38;93727.25;;;10.41;66.67
11268;BME280;72685;47.474;9.416;2024-02-26T12:36:04;93732.06;;;10.04;63.36
11268;BME280;72685;47.474;9.416;2024-02-26T12:38:29;93728.50;;;9.69;66.68
11268;BME280;72685;47.474;9.416;2024-02-26T12:40:55;93730.69;;;9.79;65.54
11268;BME280;72685;47.474;9.416;2024-02-26T12:43:21;93725.78;;;10.43;66.03
11268;BME280;72685;47.474;9.416;2024-02-26T12:45:46;93724.59;;;10.25;66.24
11268;BME280;72685;47.474;9.416;2024-02-26T12:48:13;93725.19;;;10.03;65.14
11268;BME280;72685;47.474;9.416;2024-02-26T12:50:38;93734.84;;;10.23;67.30
11268;BME280;72685;47.474;9.416;2024-02-26T12:53:05;93737.50;;;9.92;63.01
11268;BME280;72685;47.474;9.416;2024-02-26T12:55:31;93727.78;;;10.15;67.58
11268;BME280;72685;47.474;9.416;2024-02-26T12:58:00;93730.44;;;10.46;66.62
11268;BME280;72685;47.474;9.416;2024-02-26T13:00:26;93735.63;;;10.24;65.78
11268;BME280;72685;47.474;9.416;2024-02-26T13:02:54;93734.25;;;10.30;67.28
11268;BME280;72685;47.474;9.416;2024-02-26T13:05:21;93733.38;;;10.10;64.43
11268;BME280;72685;47.474;9.416;2024-02-26T13:07:47;93735.25;;;9.78;64.42
11268;BME280;72685;47.474;9.416;2024-02-26T13:10:13;93727.91;;;9.60;66.49